sensor_id;sensor_type;location;lat;lon;timestamp;pressure;altitude;pressure_sealevel;temperature;humidity
22550;BME280;11441;57.164;-2.120;2023-05-28T00:00:51;102017.84;;;10.32;100.00
22550;BME280;11441;57.164;-2.120;2023-05-28T00:03:18;102025.81;;;10.43;100.00
22550;BME280;11441;57.164;-2.120;2023-05-28T00:05:47;102018.28;;;10.26;100.00
22550;BME280;11441;57.164;-2.120;2023-05-28T00:08:14;102008.56;;;10.11;100.00
22550;BME280;11441;57.164;-2.120;2023-05-28T00:10:42;101997.19;;;10.04;100.00
22550;BME280;11441;57.164;-2.120;2023-05-28T00:13:09;101988.09;;;9.94;100.00
22550;BME280;11441;57.164;-2.120;2023-05-28T00:15:36;101981.28;;;9.83;100.00
22550;BME280;11441;57.164;-2.120;2023-05-28T00:18:06;101989.38;;;9.88;100.00
22550;BME280;11441;57.164;-2.120;2023-05-28T00:20:35;101992.06;;;9.71;100.00
22550;BME280;11441;57.164;-2.120;2023-05-28T00:23:02;101997.00;;;9.91;100.00
22550;BME280;11441;57.164;-2.120;2023-05-28T00:25:29;102013.06;;;9.98;100.00
22550;BME280;11441;57.164;-2.120;2023-05-28T00:28:14;102024.69;;;9.95;100.00
22550;BME280;11441;57.164;-2.120;2023-05-28T00:30:41;102027.03;;;10.19;100.00
22550;BME280;11441;57.164;-2.120;2023-05-28T00:33:08;102029.22;;;9.99;100.00
22550;BME280;11441;57.164;-2.120;2023-05-28T00:35:36;102024.38;;;9.96;100.00
22550;BME280;11441;57.164;-2.120;2023-05-28T00:38:02;102020.88;;;9.73;100.00
22550;BME280;11441;57.164;-2.120;2023-05-28T00:40:30;102002.91;;;9.67;100.00
22550;BME280;11441;57.164;-2.120;2023-05-28T00:43:00;102004.59;;;9.54;100.00
22550;BME280;11441;57.164;-2.120;2023-05-28T00:45:27;101987.34;;;9.62;100.00
22550;BME280;11441;57.164;-2.120;2023-05-28T00:47:54;102002.00;;;9.49;100.00
22550;BME280;11441;57.164;-2.120;2023-05-28T00:50:21;102019.22;;;9.63;100.00
22550;BME280;11441;57.164;-2.120;2023-05-28T00:52:49;102023.50;;;9.47;100.00
22550;BME280;11441;57.164;-2.120;2023-05-28T00:55:18;102026.03;;;9.66;100.00
22550;BME280;11441;57.164;-2.120;2023-05-28T00:57:47;102031.63;;;9.92;100.00
22550;BME280;11441;57.164;-2.120;2023-05-28T01:00:15;102033.91;;;9.90;100.00
22550;BME280;11441;57.164;-2.120;2023-05-28T01:02:43;102018.13;;;9.73;100.00
22550;BME280;11441;57.164;-2.120;2023-05-28T01:05:11;102015.88;;;9.75;100.00
22550;BME280;11441;57.164;-2.120;2023-05-28T01:07:38;102021.81;;;9.60;100.00
22550;BME280;11441;57.164;-2.120;2023-05-28T01:10:24;102024.06;;;9.58;100.00
22550;BME280;11441;57.164;-2.120;2023-05-28T01:13:28;102024.78;;;9.41;100.00
22550;BME280;11441;57.164;-2.120;2023-05-28T01:15:55;102032.06;;;9.46;100.00
22550;BME280;11441;57.164;-2.120;2023-05-28T01:18:22;102040.22;;;9.59;100.00
22550;BME280;11441;57.164;-2.120;2023-05-28T01:21:08;102052.72;;;9.66;100.00
22550;BME280;11441;57.164;-2.120;2023-05-28T01:23:53;102052.72;;;9.66;100.00
22550;BME280;11441;57.164;-2.120;2023-05-28T01:26:21;102054.06;;;9.77;100.00
22550;BME280;11441;57.164;-2.120;2023-05-28T01:28:49;102041.19;;;9.86;100.00
22550;BME280;11441;57.164;-2.120;2023-05-28T01:31:16;102037.25;;;9.78;100.00
22550;BME280;11441;57.164;-2.120;2023-05-28T01:34:01;102021.97;;;9.63;100.00
22550;BME280;11441;57.164;-2.120;2023-05-28T01:36:34;102010.41;;;9.44;100.00
22550;BME280;11441;57.164;-2.120;2023-05-28T01:39:05;102005.91;;;9.25;100.00
22550;BME280;11441;57.164;-2.120;2023-05-28T01:41:33;102025.84;;;9.31;100.00
22550;BME280;11441;57.164;-2.120;2023-05-28T01:44:02;102041.88;;;9.38;100.00
22550;BME280;11441;57.164;-2.120;2023-05-28T01:46:29;102062.91;;;9.34;100.00
22550;BME280;11441;57.164;-2.120;2023-05-28T01:48:56;102064.88;;;9.42;100.00
22550;BME280;11441;57.164;-2.120;2023-05-28T01:51:23;102071.53;;;9.41;100.00
22550;BME280;11441;57.164;-2.120;2023-05-28T01:53:50;102060.31;;;9.60;100.00
22550;BME280;11441;57.164;-2.120;2023-05-28T01:56:18;102045.34;;;9.21;100.00
22550;BME280;11441;57.164;-2.120;2023-05-28T01:59:04;102048.38;;;9.19;100.00
22550;BME280;11441;57.164;-2.120;2023-05-28T02:01:32;102047.34;;;9.06;100.00
22550;BME280;11441;57.164;-2.120;2023-05-28T02:04:03;102049.22;;;9.20;100.00
22550;BME280;11441;57.164;-2.120;2023-05-28T02:06:34;102070.44;;;9.28;100.00
22550;BME280;11441;57.164;-2.120;2023-05-28T02:09:01;102071.66;;;9.36;100.00
22550;BME280;11441;57.164;-2.120;2023-05-28T02:11:28;102081.44;;;9.28;100.00
22550;BME280;11441;57.164;-2.120;2023-05-28T02:13:56;102078.00;;;9.22;100.00
22550;BME280;11441;57.164;-2.120;2023-05-28T02:16:24;102073.47;;;9.18;100.00
22550;BME280;11441;57.164;-2.120;2023-05-28T02:18:53;102074.09;;;9.15;100.00
22550;BME280;11441;57.164;-2.120;2023-05-28T02:21:22;102067.88;;;9.32;100.00
22550;BME280;11441;57.164;-2.120;2023-05-28T02:23:50;102073.78;;;9.39;100.00
22550;BME280;11441;57.164;-2.120;2023-05-28T02:26:17;102081.50;;;9.37;100.00
22550;BME280;11441;57.164;-2.120;2023-05-28T02:28:44;102076.59;;;9.48;100.00
22550;BME280;11441;57.164;-2.120;2023-05-28T02:31:13;102076.59;;;9.48;100.00
22550;BME280;11441;57.164;-2.120;2023-05-28T02:33:43;102095.69;;;9.53;100.00
22550;BME280;11441;57.164;-2.120;2023-05-28T02:36:11;102092.38;;;9.42;100.00
22550;BME280;11441;57.164;-2.120;2023-05-28T02:38:41;102087.94;;;9.55;100.00
22550;BME280;11441;57.164;-2.120;2023-05-28T02:41:09;102092.81;;;9.58;100.00
22550;BME280;11441;57.164;-2.120;2023-05-28T02:43:39;102101.25;;;9.61;100.00
22550;BME280;11441;57.164;-2.120;2023-05-28T02:46:08;102097.00;;;9.55;100.00
22550;BME280;11441;57.164;-2.120;2023-05-28T02:48:55;102102.88;;;9.62;100.00
22550;BME280;11441;57.164;-2.120;2023-05-28T02:51:23;102091.69;;;9.59;100.00
22550;BME280;11441;57.164;-2.120;2023-05-28T02:54:14;102116.31;;;9.41;100.00
22550;BME280;11441;57.164;-2.120;2023-05-28T02:57:00;102120.28;;;9.49;100.00
22550;BME280;11441;57.164;-2.120;2023-05-28T02:59:27;102120.78;;;9.51;100.00
22550;BME280;11441;57.164;-2.120;2023-05-28T03:01:54;102126.03;;;9.39;100.00
22550;BME280;11441;57.164;-2.120;2023-05-28T03:04:39;102117.06;;;9.33;100.00
22550;BME280;11441;57.164;-2.120;2023-05-28T03:07:07;102110.19;;;9.22;100.00
22550;BME280;11441;57.164;-2.120;2023-05-28T03:09:36;102107.09;;;9.37;100.00
22550;BME280;11441;57.164;-2.120;2023-05-28T03:12:03;102112.28;;;9.39;100.00
22550;BME280;11441;57.164;-2.120;2023-05-28T03:14:32;102117.53;;;9.27;100.00
22550;BME280;11441;57.164;-2.120;2023-05-28T03:16:59;102124.75;;;9.22;100.00
22550;BME280;11441;57.164;-2.120;2023-05-28T03:19:26;102128.09;;;9.19;100.00
22550;BME280;11441;57.164;-2.120;2023-05-28T03:22:12;102136.44;;;9.28;100.00
22550;BME280;11441;57.164;-2.120;2023-05-28T03:24:41;102138.19;;;9.24;100.00
22550;BME280;11441;57.164;-2.120;2023-05-28T03:27:11;102129.09;;;9.37;100.00
22550;BME280;11441;57.164;-2.120;2023-05-28T03:29:38;102137.75;;;9.31;100.00
22550;BME280;11441;57.164;-2.120;2023-05-28T03:32:14;102147.34;;;9.19;100.00
22550;BME280;11441;57.164;-2.120;2023-05-28T03:34:41;102144.00;;;9.22;100.00
22550;BME280;11441;57.164;-2.120;2023-05-28T03:37:08;102151.34;;;9.13;100.00
22550;BME280;11441;57.164;-2.120;2023-05-28T03:39:36;102140.19;;;9.32;100.00
22550;BME280;11441;57.164;-2.120;2023-05-28T03:42:04;102154.75;;;9.33;100.00
22550;BME280;11441;57.164;-2.120;2023-05-28T03:44:33;102146.13;;;9.48;100.00
22550;BME280;11441;57.164;-2.120;2023-05-28T03:47:01;102146.38;;;9.38;100.00
22550;BME280;11441;57.164;-2.120;2023-05-28T03:49:28;102140.75;;;9.43;100.00
22550;BME280;11441;57.164;-2.120;2023-05-28T03:51:56;102153.59;;;9.48;100.00
22550;BME280;11441;57.164;-2.120;2023-05-28T03:54:26;102160.19;;;9.47;100.00
22550;BME280;11441;57.164;-2.120;2023-05-28T03:56:53;102167.22;;;9.53;100.00
22550;BME280;11441;57.164;-2.120;2023-05-28T03:59:20;102161.06;;;9.56;100.00
22550;BME280;11441;57.164;-2.120;2023-05-28T04:01:47;102173.81;;;9.52;100.00
22550;BME280;11441;57.164;-2.120;2023-05-28T04:04:15;102164.66;;;9.56;100.00
22550;BME280;11441;57.164;-2.120;2023-05-28T04:06:44;102166.25;;;9.57;100.00
22550;BME280;11441;57.164;-2.120;2023-05-28T04:09:11;102173.78;;;9.66;100.00
22550;BME280;11441;57.164;-2.120;2023-05-28T04:11:38;102176.44;;;9.79;100.00
22550;BME280;11441;57.164;-2.120;2023-05-28T04:14:11;102186.25;;;9.72;100.00
22550;BME280;11441;57.164;-2.120;2023-05-28T04:16:38;102191.69;;;9.63;100.00
22550;BME280;11441;57.164;-2.120;2023-05-28T04:19:05;102188.75;;;9.37;100.00
22550;BME280;11441;57.164;-2.120;2023-05-28T04:21:32;102181.88;;;9.25;100.00
22550;BME280;11441;57.164;-2.120;2023-05-28T04:23:59;102181.47;;;9.18;100.00
22550;BME280;11441;57.164;-2.120;2023-05-28T04:26:27;102176.16;;;9.22;100.00
22550;BME280;11441;57.164;-2.120;2023-05-28T04:28:53;102172.47;;;9.40;100.00
22550;BME280;11441;57.164;-2.120;2023-05-28T04:31:21;102173.25;;;9.41;100.00
22550;BME280;11441;57.164;-2.120;2023-05-28T04:33:48;102187.75;;;9.33;100.00
22550;BME280;11441;57.164;-2.120;2023-05-28T04:36:16;102177.34;;;9.30;100.00
22550;BME280;11441;57.164;-2.120;2023-05-28T04:38:43;102171.75;;;9.35;100.00
22550;BME280;11441;57.164;-2.120;2023-05-28T04:41:11;102177.50;;;9.47;100.00
22550;BME280;11441;57.164;-2.120;2023-05-28T04:43:41;102182.13;;;9.38;100.00
22550;BME280;11441;57.164;-2.120;2023-05-28T04:46:08;102175.09;;;9.32;100.00
22550;BME280;11441;57.164;-2.120;2023-05-28T04:48:38;102179.75;;;9.45;100.00
22550;BME280;11441;57.164;-2.120;2023-05-28T04:51:05;102179.44;;;9.47;100.00
22550;BME280;11441;57.164;-2.120;2023-05-28T04:53:32;102191.06;;;9.43;100.00
22550;BME280;11441;57.164;-2.120;2023-05-28T04:56:02;102193.94;;;9.38;100.00
22550;BME280;11441;57.164;-2.120;2023-05-28T04:58:30;102192.41;;;9.46;100.00
22550;BME280;11441;57.164;-2.120;2023-05-28T05:01:16;102176.88;;;9.50;100.00
22550;BME280;11441;57.164;-2.120;2023-05-28T05:03:43;102177.19;;;9.49;100.00
22550;BME280;11441;57.164;-2.120;2023-05-28T05:06:10;102176.31;;;9.39;100.00
22550;BME280;11441;57.164;-2.120;2023-05-28T05:08:37;102193.94;;;9.38;100.00
22550;BME280;11441;57.164;-2.120;2023-05-28T05:11:04;102198.03;;;9.63;100.00
22550;BME280;11441;57.164;-2.120;2023-05-28T05:13:33;102203.41;;;9.69;100.00
22550;BME280;11441;57.164;-2.120;2023-05-28T05:16:00;102195.91;;;9.60;100.00
22550;BME280;11441;57.164;-2.120;2023-05-28T05:18:28;102189.53;;;9.51;100.00
22550;BME280;11441;57.164;-2.120;2023-05-28T05:21:13;102204.91;;;9.75;100.00
22550;BME280;11441;57.164;-2.120;2023-05-28T05:23:40;102207.88;;;9.87;100.00
22550;BME280;11441;57.164;-2.120;2023-05-28T05:26:07;102219.56;;;9.84;100.00
22550;BME280;11441;57.164;-2.120;2023-05-28T05:28:36;102218.16;;;9.73;100.00
22550;BME280;11441;57.164;-2.120;2023-05-28T05:31:04;102209.22;;;9.90;100.00
22550;BME280;11441;57.164;-2.120;2023-05-28T05:33:31;102206.22;;;10.00;100.00
22550;BME280;11441;57.164;-2.120;2023-05-28T05:36:18;102196.00;;;10.00;100.00
22550;BME280;11441;57.164;-2.120;2023-05-28T05:39:04;102202.94;;;10.21;100.00
22550;BME280;11441;57.164;-2.120;2023-05-28T05:41:54;102211.69;;;10.23;100.00
22550;BME280;11441;57.164;-2.120;2023-05-28T05:44:27;102220.06;;;10.17;100.00
22550;BME280;11441;57.164;-2.120;2023-05-28T05:46:54;102219.09;;;9.91;100.00
22550;BME280;11441;57.164;-2.120;2023-05-28T05:49:21;102214.41;;;10.14;100.00
22550;BME280;11441;57.164;-2.120;2023-05-28T05:51:48;102206.56;;;10.07;100.00
22550;BME280;11441;57.164;-2.120;2023-05-28T05:54:15;102207.19;;;10.04;100.00
22550;BME280;11441;57.164;-2.120;2023-05-28T05:56:42;102205.72;;;9.75;100.00
22550;BME280;11441;57.164;-2.120;2023-05-28T05:59:11;102228.34;;;9.72;100.00
22550;BME280;11441;57.164;-2.120;2023-05-28T06:01:39;102228.44;;;9.81;100.00
22550;BME280;11441;57.164;-2.120;2023-05-28T06:04:06;102231.72;;;9.92;100.00
22550;BME280;11441;57.164;-2.120;2023-05-28T06:07:05;102217.78;;;9.88;100.00
22550;BME280;11441;57.164;-2.120;2023-05-28T06:09:42;102219.66;;;10.02;100.00
22550;BME280;11441;57.164;-2.120;2023-05-28T06:12:18;102211.22;;;9.98;100.00
22550;BME280;11441;57.164;-2.120;2023-05-28T06:14:46;102219.66;;;10.02;100.00
22550;BME280;11441;57.164;-2.120;2023-05-28T06:17:15;102225.91;;;9.93;100.00
22550;BME280;11441;57.164;-2.120;2023-05-28T06:19:42;102232.16;;;10.08;100.00
22550;BME280;11441;57.164;-2.120;2023-05-28T06:22:09;102235.09;;;10.11;100.00
22550;BME280;11441;57.164;-2.120;2023-05-28T06:24:58;102231.47;;;10.02;100.00
22550;BME280;11441;57.164;-2.120;2023-05-28T06:27:27;102226.34;;;10.09;100.00
22550;BME280;11441;57.164;-2.120;2023-05-28T06:29:54;102235.34;;;10.01;100.00
22550;BME280;11441;57.164;-2.120;2023-05-28T06:32:21;102250.06;;;10.19;100.00
22550;BME280;11441;57.164;-2.120;2023-05-28T06:35:07;102254.50;;;10.06;100.00
22550;BME280;11441;57.164;-2.120;2023-05-28T06:37:37;102250.31;;;10.09;100.00
22550;BME280;11441;57.164;-2.120;2023-05-28T06:40:07;102245.34;;;10.19;100.00
22550;BME280;11441;57.164;-2.120;2023-05-28T06:42:36;102244.69;;;10.14;100.00
22550;BME280;11441;57.164;-2.120;2023-05-28T06:45:27;102248.97;;;10.29;100.00
22550;BME280;11441;57.164;-2.120;2023-05-28T06:47:55;102252.00;;;10.50;100.00
22550;BME280;11441;57.164;-2.120;2023-05-28T06:50:22;102254.91;;;10.45;100.00
22550;BME280;11441;57.164;-2.120;2023-05-28T06:52:51;102258.53;;;10.54;100.00
22550;BME280;11441;57.164;-2.120;2023-05-28T06:55:19;102248.97;;;10.60;100.00
22550;BME280;11441;57.164;-2.120;2023-05-28T06:58:17;102242.41;;;10.38;100.00
22550;BME280;11441;57.164;-2.120;2023-05-28T07:01:03;102246.16;;;10.43;100.00
22550;BME280;11441;57.164;-2.120;2023-05-28T07:04:03;102259.47;;;10.49;100.00
22550;BME280;11441;57.164;-2.120;2023-05-28T07:06:38;102270.66;;;10.53;100.00
22550;BME280;11441;57.164;-2.120;2023-05-28T07:09:08;102276.84;;;10.59;100.00
22550;BME280;11441;57.164;-2.120;2023-05-28T07:11:35;102277.31;;;10.52;100.00
22550;BME280;11441;57.164;-2.120;2023-05-28T07:14:02;102269.78;;;10.66;100.00
22550;BME280;11441;57.164;-2.120;2023-05-28T07:16:30;102273.50;;;10.70;100.00
22550;BME280;11441;57.164;-2.120;2023-05-28T07:18:57;102275.03;;;10.45;100.00
22550;BME280;11441;57.164;-2.120;2023-05-28T07:21:25;102269.19;;;10.47;100.00
22550;BME280;11441;57.164;-2.120;2023-05-28T07:23:52;102279.75;;;10.53;100.00
22550;BME280;11441;57.164;-2.120;2023-05-28T07:26:19;102282.13;;;10.46;100.00
22550;BME280;11441;57.164;-2.120;2023-05-28T07:28:46;102285.38;;;10.48;100.00
22550;BME280;11441;57.164;-2.120;2023-05-28T07:31:13;102270.63;;;10.44;100.00
22550;BME280;11441;57.164;-2.120;2023-05-28T07:33:44;102283.47;;;10.49;100.00
22550;BME280;11441;57.164;-2.120;2023-05-28T07:36:11;102273.44;;;10.30;100.00
22550;BME280;11441;57.164;-2.120;2023-05-28T07:38:39;102283.22;;;10.36;100.00
22550;BME280;11441;57.164;-2.120;2023-05-28T07:41:05;102292.84;;;10.48;100.00
22550;BME280;11441;57.164;-2.120;2023-05-28T07:43:55;102291.59;;;10.54;100.00
22550;BME280;11441;57.164;-2.120;2023-05-28T07:46:25;102284.31;;;10.58;100.00
22550;BME280;11441;57.164;-2.120;2023-05-28T07:49:06;102293.81;;;10.83;100.00
22550;BME280;11441;57.164;-2.120;2023-05-28T07:51:41;102301.00;;;10.93;100.00
22550;BME280;11441;57.164;-2.120;2023-05-28T07:54:16;102304.94;;;11.01;100.00
22550;BME280;11441;57.164;-2.120;2023-05-28T07:56:44;102298.16;;;11.16;100.00
22550;BME280;11441;57.164;-2.120;2023-05-28T07:59:19;102297.53;;;11.19;100.00
22550;BME280;11441;57.164;-2.120;2023-05-28T08:01:48;102304.94;;;11.01;100.00
22550;BME280;11441;57.164;-2.120;2023-05-28T08:04:15;102299.81;;;10.77;100.00
22550;BME280;11441;57.164;-2.120;2023-05-28T08:06:44;102308.28;;;10.89;100.00
22550;BME280;11441;57.164;-2.120;2023-05-28T08:09:13;102312.00;;;10.84;100.00
22550;BME280;11441;57.164;-2.120;2023-05-28T08:11:48;102331.41;;;10.79;100.00
22550;BME280;11441;57.164;-2.120;2023-05-28T08:14:15;102327.69;;;10.75;100.00
22550;BME280;11441;57.164;-2.120;2023-05-28T08:16:43;102334.72;;;10.59;100.00
22550;BME280;11441;57.164;-2.120;2023-05-28T08:19:32;102329.81;;;10.78;100.00
22550;BME280;11441;57.164;-2.120;2023-05-28T08:22:02;102323.56;;;11.04;100.00
22550;BME280;11441;57.164;-2.120;2023-05-28T08:24:30;102334.22;;;11.37;100.00
22550;BME280;11441;57.164;-2.120;2023-05-28T08:26:57;102337.06;;;11.14;100.00
22550;BME280;11441;57.164;-2.120;2023-05-28T08:29:26;102331.47;;;11.37;100.00
22550;BME280;11441;57.164;-2.120;2023-05-28T08:32:03;102325.97;;;11.45;100.00
22550;BME280;11441;57.164;-2.120;2023-05-28T08:34:35;102324.69;;;11.43;100.00
22550;BME280;11441;57.164;-2.120;2023-05-28T08:37:20;102323.34;;;11.31;100.00
22550;BME280;11441;57.164;-2.120;2023-05-28T08:40:05;102327.53;;;11.20;100.00
22550;BME280;11441;57.164;-2.120;2023-05-28T08:42:54;102330.69;;;11.45;100.00
22550;BME280;11441;57.164;-2.120;2023-05-28T08:45:40;102324.50;;;11.30;100.00
22550;BME280;11441;57.164;-2.120;2023-05-28T08:48:11;102321.13;;;11.68;100.00
22550;BME280;11441;57.164;-2.120;2023-05-28T08:50:40;102315.69;;;11.28;100.00
22550;BME280;11441;57.164;-2.120;2023-05-28T08:53:16;102321.25;;;11.55;100.00
22550;BME280;11441;57.164;-2.120;2023-05-28T08:55:45;102325.50;;;11.52;100.00
22550;BME280;11441;57.164;-2.120;2023-05-28T08:58:19;102319.19;;;11.51;98.25
22550;BME280;11441;57.164;-2.120;2023-05-28T09:00:49;102323.06;;;11.68;99.36
22550;BME280;11441;57.164;-2.120;2023-05-28T09:03:25;102309.59;;;11.66;98.44
22550;BME280;11441;57.164;-2.120;2023-05-28T09:05:55;102316.13;;;11.88;98.57
22550;BME280;11441;57.164;-2.120;2023-05-28T09:08:23;102305.06;;;11.62;96.45
22550;BME280;11441;57.164;-2.120;2023-05-28T09:10:50;102331.03;;;11.61;99.70
22550;BME280;11441;57.164;-2.120;2023-05-28T09:13:20;102315.13;;;11.84;98.59
22550;BME280;11441;57.164;-2.120;2023-05-28T09:15:52;102323.44;;;11.93;97.29
22550;BME280;11441;57.164;-2.120;2023-05-28T09:18:36;102316.13;;;11.70;97.14
22550;BME280;11441;57.164;-2.120;2023-05-28T09:21:07;102321.63;;;11.70;97.00
22550;BME280;11441;57.164;-2.120;2023-05-28T09:23:38;102320.19;;;11.91;95.81
22550;BME280;11441;57.164;-2.120;2023-05-28T09:26:09;102329.28;;;12.00;95.84
22550;BME280;11441;57.164;-2.120;2023-05-28T09:28:45;102333.66;;;11.83;95.24
22550;BME280;11441;57.164;-2.120;2023-05-28T09:31:12;102329.47;;;12.03;94.59
22550;BME280;11441;57.164;-2.120;2023-05-28T09:33:44;102327.84;;;12.11;95.36
22550;BME280;11441;57.164;-2.120;2023-05-28T09:36:11;102317.41;;;12.25;94.75
22550;BME280;11441;57.164;-2.120;2023-05-28T09:38:42;102313.16;;;12.45;94.77
22550;BME280;11441;57.164;-2.120;2023-05-28T09:41:25;102313.81;;;12.42;95.71
22550;BME280;11441;57.164;-2.120;2023-05-28T09:43:57;102315.13;;;12.36;96.42
22550;BME280;11441;57.164;-2.120;2023-05-28T09:46:29;102323.72;;;12.35;96.37
22550;BME280;11441;57.164;-2.120;2023-05-28T09:48:57;102314.97;;;12.33;95.83
22550;BME280;11441;57.164;-2.120;2023-05-28T09:51:26;102304.41;;;12.43;90.52
22550;BME280;11441;57.164;-2.120;2023-05-28T09:53:57;102311.00;;;12.60;89.68
22550;BME280;11441;57.164;-2.120;2023-05-28T09:56:27;102309.94;;;12.43;90.80
22550;BME280;11441;57.164;-2.120;2023-05-28T09:58:57;102309.38;;;12.59;92.11
22550;BME280;11441;57.164;-2.120;2023-05-28T10:01:40;102308.84;;;12.74;92.33
22550;BME280;11441;57.164;-2.120;2023-05-28T10:04:35;102313.75;;;12.69;90.39
22550;BME280;11441;57.164;-2.120;2023-05-28T10:07:04;102313.47;;;12.53;91.65
22550;BME280;11441;57.164;-2.120;2023-05-28T10:09:33;102322.75;;;12.48;94.30
22550;BME280;11441;57.164;-2.120;2023-05-28T10:12:05;102320.13;;;12.52;92.66
22550;BME280;11441;57.164;-2.120;2023-05-28T10:14:35;102316.81;;;12.76;93.47
22550;BME280;11441;57.164;-2.120;2023-05-28T10:17:03;102325.59;;;12.69;93.86
22550;BME280;11441;57.164;-2.120;2023-05-28T10:19:30;102332.94;;;12.65;93.94
22550;BME280;11441;57.164;-2.120;2023-05-28T10:21:57;102329.72;;;12.54;94.15
22550;BME280;11441;57.164;-2.120;2023-05-28T10:24:24;102334.94;;;12.47;92.45
22550;BME280;11441;57.164;-2.120;2023-05-28T10:26:55;102331.34;;;12.55;93.69
22550;BME280;11441;57.164;-2.120;2023-05-28T10:29:22;102333.72;;;12.74;92.26
22550;BME280;11441;57.164;-2.120;2023-05-28T10:31:58;102334.84;;;12.82;92.97
22550;BME280;11441;57.164;-2.120;2023-05-28T10:34:45;102333.38;;;12.76;93.78
22550;BME280;11441;57.164;-2.120;2023-05-28T10:37:12;102331.81;;;12.57;94.32
22550;BME280;11441;57.164;-2.120;2023-05-28T10:39:43;102338.81;;;12.55;94.91
22550;BME280;11441;57.164;-2.120;2023-05-28T10:42:17;102336.06;;;12.46;93.94
22550;BME280;11441;57.164;-2.120;2023-05-28T10:47:37;102344.38;;;12.46;94.42
22550;BME280;11441;57.164;-2.120;2023-05-28T10:52:43;102351.00;;;12.54;94.64
22550;BME280;11441;57.164;-2.120;2023-05-28T10:55:29;102354.44;;;12.51;95.19
22550;BME280;11441;57.164;-2.120;2023-05-28T10:58:06;102351.19;;;12.40;96.75
22550;BME280;11441;57.164;-2.120;2023-05-28T11:00:41;102362.38;;;12.61;95.87
22550;BME280;11441;57.164;-2.120;2023-05-28T11:03:08;102359.28;;;12.54;94.41
22550;BME280;11441;57.164;-2.120;2023-05-28T11:05:35;102355.28;;;12.25;96.87
22550;BME280;11441;57.164;-2.120;2023-05-28T11:08:03;102352.31;;;12.56;95.49
22550;BME280;11441;57.164;-2.120;2023-05-28T11:10:30;102344.38;;;12.37;95.20
22550;BME280;11441;57.164;-2.120;2023-05-28T11:12:58;102358.75;;;12.78;95.18
22550;BME280;11441;57.164;-2.120;2023-05-28T11:15:25;102361.47;;;12.95;92.35
22550;BME280;11441;57.164;-2.120;2023-05-28T11:17:53;102347.84;;;12.81;91.65
22550;BME280;11441;57.164;-2.120;2023-05-28T11:20:22;102355.59;;;12.97;92.63
22550;BME280;11441;57.164;-2.120;2023-05-28T11:22:55;102350.72;;;12.94;91.08
22550;BME280;11441;57.164;-2.120;2023-05-28T11:25:23;102358.44;;;13.18;91.04
22550;BME280;11441;57.164;-2.120;2023-05-28T11:27:53;102363.56;;;12.98;89.77
22550;BME280;11441;57.164;-2.120;2023-05-28T11:30:21;102373.22;;;12.75;89.48
22550;BME280;11441;57.164;-2.120;2023-05-28T11:32:49;102358.38;;;12.97;88.01
22550;BME280;11441;57.164;-2.120;2023-05-28T11:35:35;102351.84;;;13.01;88.48
22550;BME280;11441;57.164;-2.120;2023-05-28T11:38:02;102342.22;;;12.60;87.04
22550;BME280;11441;57.164;-2.120;2023-05-28T11:40:33;102339.84;;;12.89;85.24
22550;BME280;11441;57.164;-2.120;2023-05-28T11:43:01;102348.31;;;12.92;81.09
22550;BME280;11441;57.164;-2.120;2023-05-28T11:45:36;102348.06;;;13.15;81.48
22550;BME280;11441;57.164;-2.120;2023-05-28T11:48:03;102351.78;;;13.19;81.29
22550;BME280;11441;57.164;-2.120;2023-05-28T11:50:30;102356.25;;;12.94;83.19
22550;BME280;11441;57.164;-2.120;2023-05-28T11:52:58;102364.50;;;12.55;85.06
22550;BME280;11441;57.164;-2.120;2023-05-28T11:55:25;102358.09;;;12.81;84.73
22550;BME280;11441;57.164;-2.120;2023-05-28T11:58:10;102354.16;;;12.91;84.96
22550;BME280;11441;57.164;-2.120;2023-05-28T12:00:37;102360.28;;;13.05;85.95
22550;BME280;11441;57.164;-2.120;2023-05-28T12:03:04;102357.78;;;13.21;85.70
22550;BME280;11441;57.164;-2.120;2023-05-28T12:05:36;102355.47;;;13.23;85.97
22550;BME280;11441;57.164;-2.120;2023-05-28T12:08:04;102352.19;;;13.38;85.53
22550;BME280;11441;57.164;-2.120;2023-05-28T12:10:50;102346.00;;;13.42;86.25
22550;BME280;11441;57.164;-2.120;2023-05-28T12:13:18;102328.59;;;13.62;85.73
22550;BME280;11441;57.164;-2.120;2023-05-28T12:15:45;102338.28;;;13.47;86.14
22550;BME280;11441;57.164;-2.120;2023-05-28T12:18:11;102338.56;;;13.54;86.03
22550;BME280;11441;57.164;-2.120;2023-05-28T12:20:42;102333.50;;;13.56;86.25
22550;BME280;11441;57.164;-2.120;2023-05-28T12:23:10;102337.50;;;13.89;86.78
22550;BME280;11441;57.164;-2.120;2023-05-28T12:25:51;102339.00;;;14.07;86.83
22550;BME280;11441;57.164;-2.120;2023-05-28T12:28:20;102342.72;;;14.11;87.27
22550;BME280;11441;57.164;-2.120;2023-05-28T12:30:49;102352.28;;;14.14;87.12
22550;BME280;11441;57.164;-2.120;2023-05-28T12:33:17;102344.53;;;14.07;85.67
22550;BME280;11441;57.164;-2.120;2023-05-28T12:35:44;102349.59;;;14.05;86.32
22550;BME280;11441;57.164;-2.120;2023-05-28T12:38:30;102344.63;;;13.99;86.06
22550;BME280;11441;57.164;-2.120;2023-05-28T12:41:16;102353.78;;;14.11;86.21
22550;BME280;11441;57.164;-2.120;2023-05-28T12:43:42;102349.66;;;13.75;85.89
22550;BME280;11441;57.164;-2.120;2023-05-28T12:46:11;102348.53;;;13.76;85.33
22550;BME280;11441;57.164;-2.120;2023-05-28T12:48:40;102350.03;;;13.95;85.52
22550;BME280;11441;57.164;-2.120;2023-05-28T12:51:07;102358.25;;;14.04;84.80
22550;BME280;11441;57.164;-2.120;2023-05-28T12:53:34;102357.50;;;13.73;83.65
22550;BME280;11441;57.164;-2.120;2023-05-28T12:56:01;102354.34;;;13.84;84.40
22550;BME280;11441;57.164;-2.120;2023-05-28T12:58:28;102350.94;;;13.57;85.45
22550;BME280;11441;57.164;-2.120;2023-05-28T13:00:55;102368.03;;;13.59;85.17
22550;BME280;11441;57.164;-2.120;2023-05-28T13:03:22;102361.44;;;13.72;85.06